Time;durP1;ratioP1;P1;durP2;ratioP2;P2;SDS_P1;SDS_P2;PMS_P1;PMS_P2;Temp;Humidity;BMP_temperature;BMP_pressure;BME280_temperature;BME280_humidity;BME280_pressure;Samples;Min_cycle;Max_cycle;Signal;HPM_P1;HPM_P2
2022/03/28 00:00:29;;;;;;;38.50;12.50;;;5.40;99.90;;;;;;4961183;28;20437;-77
2022/03/28 00:02:55;;;;;;;35.28;11.40;;;5.40;99.90;;;;;;4960864;28;20046;-77
2022/03/28 00:05:20;;;;;;;39.35;11.57;;;5.40;99.90;;;;;;4960980;28;20150;-77
2022/03/28 00:07:46;;;;;;;26.83;11.05;;;5.40;99.90;;;;;;4960940;28;20411;-77
2022/03/28 00:10:13;;;;;;;25.05;8.30;;;5.40;99.90;;;;;;4961120;28;20034;-77
2022/03/28 00:12:39;;;;;;;27.92;9.25;;;5.50;99.90;;;;;;4976521;28;20052;-77
2022/03/28 00:15:06;;;;;;;21.45;8.68;;;5.40;99.90;;;;;;4960543;28;20129;-77
2022/03/28 00:17:33;;;;;;;27.92;8.43;;;5.40;99.90;;;;;;5011915;28;20555;-77
2022/03/28 00:20:06;;;;;;;21.13;8.65;;;5.40;99.90;;;;;;4995622;28;20045;-77
2022/03/28 00:22:32;;;;;;;17.20;7.80;;;5.40;99.90;;;;;;4979422;28;20041;-77
2022/03/28 00:24:57;;;;;;;31.83;7.93;;;5.40;99.90;;;;;;4979564;28;20038;-77
2022/03/28 00:27:23;;;;;;;14.93;6.75;;;5.30;99.90;;;;;;4994987;28;20621;-77
2022/03/28 00:29:49;;;;;;;28.50;7.65;;;5.30;99.90;;;;;;4995474;28;20041;-77
2022/03/28 00:32:14;;;;;;;57.88;7.28;;;5.30;99.90;;;;;;4979656;28;20451;-77
2022/03/28 00:34:40;;;;;;;20.48;6.45;;;5.30;99.90;;;;;;4979609;28;20042;-77
2022/03/28 00:37:07;;;;;;;16.48;5.95;;;5.20;99.90;;;;;;4995487;28;20033;-77
2022/03/28 00:39:33;;;;;;;19.60;5.45;;;5.20;99.90;;;;;;4995999;28;20405;-77
2022/03/28 00:41:58;;;;;;;14.80;5.90;;;5.20;99.90;;;;;;4995815;28;20046;-77
2022/03/28 00:44:24;;;;;;;15.35;5.90;;;5.20;99.90;;;;;;4979639;28;20143;-77
2022/03/28 00:46:49;;;;;;;27.73;5.40;;;5.20;99.90;;;;;;4995724;28;20046;-77
2022/03/28 00:49:16;;;;;;;42.72;9.57;;;5.20;99.90;;;;;;4979135;28;20397;-77
2022/03/28 00:51:42;;;;;;;18.52;4.85;;;5.20;99.90;;;;;;4979570;28;20057;-77
2022/03/28 00:54:08;;;;;;;18.20;4.55;;;5.20;99.90;;;;;;4979224;28;20041;-77
2022/03/28 00:56:36;;;;;;;12.32;4.13;;;5.20;99.90;;;;;;4995831;28;20403;-77
2022/03/28 00:59:02;;;;;;;26.90;4.95;;;5.30;99.90;;;;;;4975795;28;20039;-77
2022/03/28 01:01:28;;;;;;;14.57;4.25;;;5.20;99.90;;;;;;4959720;28;20048;-77
2022/03/28 01:03:54;;;;;;;33.53;5.28;;;5.20;99.90;;;;;;4976028;28;20050;-77
2022/03/28 01:06:19;;;;;;;20.42;4.60;;;5.20;99.90;;;;;;4975831;28;20160;-77
2022/03/28 01:08:45;;;;;;;23.10;4.85;;;5.20;99.90;;;;;;4995257;28;20129;-77
2022/03/28 01:11:11;;;;;;;28.08;4.80;;;5.30;99.90;;;;;;4979500;28;20045;-77
2022/03/28 01:13:39;;;;;;;23.98;4.75;;;5.20;99.90;;;;;;4994782;28;20041;-77
2022/03/28 01:16:06;;;;;;;23.40;3.60;;;5.20;99.90;;;;;;4978856;28;20077;-77
2022/03/28 01:18:31;;;;;;;34.08;4.68;;;5.30;99.90;;;;;;4995169;28;20033;-77
2022/03/28 01:20:58;;;;;;;23.00;3.47;;;5.30;99.90;;;;;;4978851;28;20042;-77
2022/03/28 01:23:24;;;;;;;20.33;3.33;;;5.20;99.90;;;;;;4994656;28;20041;-77
2022/03/28 01:25:51;;;;;;;16.33;3.70;;;5.20;99.90;;;;;;4978595;28;20487;-77
2022/03/28 01:28:18;;;;;;;15.38;3.50;;;5.20;99.90;;;;;;4974869;28;20030;-77
2022/03/28 01:30:44;;;;;;;18.67;3.25;;;5.20;99.90;;;;;;4975490;28;20045;-77
2022/03/28 01:33:09;;;;;;;10.27;3.20;;;5.20;99.90;;;;;;4977282;28;20038;-77
2022/03/28 01:35:37;;;;;;;6.50;2.55;;;5.20;99.90;;;;;;4975409;28;20038;-77
2022/03/28 01:38:06;;;;;;;7.45;2.80;;;5.20;99.90;;;;;;4966457;28;20038;-77
2022/03/28 01:40:34;;;;;;;16.05;2.58;;;5.20;99.90;;;;;;4978734;28;20049;-77
2022/03/28 01:42:59;;;;;;;35.28;6.60;;;5.20;99.90;;;;;;4978344;28;20042;-77
2022/03/28 01:45:25;;;;;;;19.30;3.00;;;5.10;99.90;;;;;;4994265;28;20543;-77
2022/03/28 01:47:51;;;;;;;19.80;3.60;;;5.10;99.90;;;;;;4994232;28;20480;-77
2022/03/28 01:50:17;;;;;;;17.05;2.70;;;5.10;99.90;;;;;;4994263;28;20052;-77
2022/03/28 01:52:43;;;;;;;33.95;4.45;;;5.10;99.90;;;;;;4993880;28;20050;-77
2022/03/28 01:55:09;;;;;;;14.50;3.25;;;5.10;99.90;;;;;;4977999;28;20116;-77
2022/03/28 01:57:39;;;;;;;10.63;3.08;;;5.10;99.90;;;;;;4977785;28;20049;-77
2022/03/28 02:00:08;;;;;;;10.38;3.05;;;5.10;99.90;;;;;;4994149;28;20042;-77
2022/03/28 02:02:33;;;;;;;14.27;3.10;;;5.20;99.90;;;;;;4994370;28;20508;-77
2022/03/28 02:04:59;;;;;;;23.17;4.15;;;5.10;99.90;;;;;;4994166;28;20096;-77
2022/03/28 02:07:25;;;;;;;19.08;3.35;;;5.20;99.90;;;;;;4993881;28;20038;-77
2022/03/28 02:09:51;;;;;;;7.80;3.10;;;5.10;99.90;;;;;;4977866;28;20060;-77
2022/03/28 02:12:16;;;;;;;15.27;3.47;;;5.20;99.90;;;;;;4994124;28;20048;-77
2022/03/28 02:14:42;;;;;;;31.35;3.58;;;5.10;99.90;;;;;;4997609;28;20038;-77
2022/03/28 02:17:07;;;;;;;14.48;3.83;;;5.10;99.90;;;;;;4981609;28;20034;-77
2022/03/28 02:19:32;;;;;;;16.20;3.50;;;5.10;99.90;;;;;;4997457;28;20042;-77
2022/03/28 02:21:58;;;;;;;13.13;3.53;;;5.10;99.90;;;;;;4997914;28;20049;-77
2022/03/28 02:24:23;;;;;;;16.02;3.97;;;5.10;99.90;;;;;;4997957;28;20511;-77
2022/03/28 02:26:49;;;;;;;15.45;3.88;;;5.00;99.90;;;;;;4981395;28;20041;-77
2022/03/28 02:29:15;;;;;;;18.63;5.20;;;5.10;99.90;;;;;;4981463;28;20038;-77
2022/03/28 02:31:40;;;;;;;21.33;4.28;;;5.10;99.90;;;;;;4997693;28;20077;-77
2022/03/28 02:34:06;;;;;;;17.30;4.25;;;5.10;99.90;;;;;;4997174;28;20045;-77
2022/03/28 02:36:31;;;;;;;18.83;4.05;;;5.10;99.90;;;;;;4997578;28;20033;-77
2022/03/28 02:38:57;;;;;;;15.13;4.30;;;5.10;99.90;;;;;;4997355;28;20040;-77
2022/03/28 02:41:22;;;;;;;22.40;4.75;;;5.20;99.90;;;;;;4997600;28;20377;-77
2022/03/28 02:43:49;;;;;;;32.13;4.85;;;5.20;99.90;;;;;;4997361;28;20136;-77
2022/03/28 02:46:15;;;;;;;24.13;5.13;;;5.20;99.90;;;;;;4997447;28;20642;-77
2022/03/28 02:48:40;;;;;;;20.63;4.85;;;5.10;99.90;;;;;;4997017;28;20134;-77
2022/03/28 02:51:06;;;;;;;18.25;4.35;;;5.20;99.90;;;;;;4981170;28;20132;-77
2022/03/28 02:53:31;;;;;;;56.00;6.40;;;5.20;99.90;;;;;;4980888;28;20045;-77
2022/03/28 02:55:58;;;;;;;27.05;4.38;;;5.10;99.90;;;;;;4997272;28;20038;-77
2022/03/28 02:58:24;;;;;;;59.85;6.07;;;5.10;99.90;;;;;;4980746;28;20030;-77
2022/03/28 03:00:49;;;;;;;39.33;5.25;;;5.10;99.90;;;;;;4997160;28;20044;-77
2022/03/28 03:03:15;;;;;;;42.40;6.10;;;5.10;99.90;;;;;;4996735;28;20060;-77
2022/03/28 03:05:42;;;;;;;35.63;5.50;;;5.00;99.90;;;;;;4980764;28;20491;-77
2022/03/28 03:08:08;;;;;;;51.42;4.57;;;5.00;99.90;;;;;;4996788;28;20029;-77
2022/03/28 03:10:34;;;;;;;46.92;5.25;;;5.00;99.90;;;;;;4980760;28;20042;-77
2022/03/28 03:13:00;;;;;;;24.55;4.85;;;5.10;99.90;;;;;;4997102;28;20064;-77
2022/03/28 03:15:26;;;;;;;28.55;4.50;;;5.00;99.90;;;;;;4980553;28;20500;-77
2022/03/28 03:17:51;;;;;;;14.20;4.35;;;5.00;99.90;;;;;;4980489;28;20049;-77
2022/03/28 03:20:17;;;;;;;21.65;4.40;;;5.00;99.90;;;;;;4996876;28;20041;-77
2022/03/28 03:22:43;;;;;;;24.25;4.93;;;5.00;99.90;;;;;;4996863;28;20042;-77
2022/03/28 03:25:08;;;;;;;36.80;5.07;;;5.00;99.90;;;;;;4996282;28;20046;-76
2022/03/28 03:27:38;;;;;;;35.28;4.43;;;5.00;99.90;;;;;;4996314;28;20139;-77
2022/03/28 03:30:10;;;;;;;21.08;4.30;;;5.00;99.90;;;;;;4996336;28;20063;-77
2022/03/28 03:32:37;;;;;;;27.63;5.15;;;5.00;99.90;;;;;;4980370;28;20042;-77
2022/03/28 03:35:03;;;;;;;35.97;4.57;;;5.00;99.90;;;;;;4980303;28;20082;-77
2022/03/28 03:37:29;;;;;;;24.83;4.78;;;5.00;99.90;;;;;;4980097;28;20044;-77
2022/03/28 03:39:54;;;;;;;29.25;4.88;;;5.00;99.90;;;;;;4996275;28;20113;-78
2022/03/28 03:42:20;;;;;;;57.97;4.80;;;5.00;99.90;;;;;;4996389;28;20034;-77
2022/03/28 03:44:45;;;;;;;28.40;5.28;;;5.10;99.90;;;;;;4995984;28;20050;-77
2022/03/28 03:47:11;;;;;;;23.77;5.57;;;5.00;99.90;;;;;;4980045;28;20042;-77
2022/03/28 03:49:36;;;;;;;23.95;4.68;;;5.00;99.90;;;;;;4979853;28;20052;-77
2022/03/28 03:52:02;;;;;;;26.25;5.00;;;5.10;99.90;;;;;;4996333;28;20611;-78
2022/03/28 03:54:28;;;;;;;30.27;7.25;;;5.10;99.90;;;;;;4979909;28;20555;-77
2022/03/28 03:56:53;;;;;;;17.63;4.10;;;5.10;99.90;;;;;;4996121;28;20096;-77
2022/03/28 03:59:19;;;;;;;26.48;5.93;;;5.10;99.90;;;;;;4979899;28;20061;-77
2022/03/28 04:01:45;;;;;;;17.30;4.78;;;5.20;99.90;;;;;;4979866;28;20034;-77
2022/03/28 04:04:12;;;;;;;32.22;6.22;;;5.20;99.90;;;;;;4979677;28;20041;-77
2022/03/28 04:06:39;;;;;;;25.77;4.88;;;5.10;99.90;;;;;;4995958;28;20049;-77
2022/03/28 04:09:04;;;;;;;30.38;5.60;;;5.10;99.90;;;;;;4995606;28;20042;-77
2022/03/28 04:11:30;;;;;;;24.52;5.70;;;5.00;99.90;;;;;;4995753;28;20091;-77
2022/03/28 04:13:57;;;;;;;28.02;6.75;;;5.00;99.90;;;;;;4995607;28;20038;-77
2022/03/28 04:16:23;;;;;;;29.30;6.32;;;5.10;99.90;;;;;;4995458;28;20085;-77
2022/03/28 04:18:49;;;;;;;21.35;6.32;;;5.10;99.90;;;;;;4995666;28;20087;-77
2022/03/28 04:21:15;;;;;;;30.55;6.90;;;5.10;99.90;;;;;;4979543;28;20400;-77
2022/03/28 04:23:40;;;;;;;26.38;6.32;;;5.10;99.90;;;;;;4979179;28;20045;-77
2022/03/28 04:26:06;;;;;;;34.28;8.35;;;5.10;99.90;;;;;;4979336;28;20124;-77
2022/03/28 04:28:32;;;;;;;43.65;8.63;;;5.10;99.90;;;;;;4995546;28;20049;-77
2022/03/28 04:30:58;;;;;;;41.25;7.85;;;5.10;99.90;;;;;;4995769;28;20117;-77
2022/03/28 04:33:23;;;;;;;39.92;9.43;;;5.10;99.90;;;;;;4995321;28;20038;-77
2022/03/28 04:35:50;;;;;;;44.88;8.70;;;5.10;99.90;;;;;;4995234;28;20104;-77
2022/03/28 04:38:16;;;;;;;32.45;9.65;;;5.10;99.90;;;;;;4979037;28;20095;-77
2022/03/28 04:40:41;;;;;;;31.92;9.25;;;5.10;99.90;;;;;;4995328;28;20046;-77
2022/03/28 04:43:07;;;;;;;26.08;8.48;;;5.00;99.90;;;;;;4995151;28;20042;-77
2022/03/28 04:45:33;;;;;;;30.05;9.35;;;5.10;99.90;;;;;;4979007;28;20041;-77
2022/03/28 04:47:59;;;;;;;30.45;9.65;;;5.10;99.90;;;;;;4994941;28;20037;-77
2022/03/28 04:50:25;;;;;;;35.53;10.55;;;5.10;99.90;;;;;;4995113;28;20045;-77
2022/03/28 04:52:50;;;;;;;36.25;11.05;;;5.10;99.90;;;;;;4979067;28;20040;-77
2022/03/28 04:55:16;;;;;;;42.53;11.30;;;5.10;99.90;;;;;;4994946;28;20045;-77
2022/03/28 04:57:41;;;;;;;110.63;17.10;;;5.10;99.90;;;;;;4979026;28;20104;-77
2022/03/28 05:00:09;;;;;;;40.13;11.93;;;5.10;99.90;;;;;;4981763;28;20037;-77
2022/03/28 05:02:36;;;;;;;47.38;13.65;;;5.10;99.90;;;;;;4992252;28;20041;-77
2022/03/28 05:05:03;;;;;;;55.25;13.18;;;5.10;99.90;;;;;;4994851;28;20049;-77
2022/03/28 05:07:29;;;;;;;53.45;14.82;;;5.10;99.90;;;;;;4994703;28;20046;-77
2022/03/28 05:09:56;;;;;;;46.05;12.60;;;5.10;99.90;;;;;;4994211;28;20045;-77
2022/03/28 05:12:22;;;;;;;60.35;14.43;;;5.10;99.90;;;;;;4978542;28;20041;-77
2022/03/28 05:14:49;;;;;;;41.72;12.82;;;5.00;99.90;;;;;;4994169;28;20116;-77
2022/03/28 05:17:18;;;;;;;44.15;13.35;;;5.00;99.90;;;;;;4994874;28;20038;-79
2022/03/28 05:19:43;;;;;;;31.02;11.10;;;5.00;99.90;;;;;;4977864;28;20496;-76
2022/03/28 05:22:09;;;;;;;32.05;12.20;;;5.10;99.90;;;;;;4978617;28;20127;-75
2022/03/28 05:24:35;;;;;;;38.35;13.30;;;5.10;99.90;;;;;;4989407;28;20049;-76
2022/03/28 05:27:00;;;;;;;34.85;12.48;;;5.10;99.90;;;;;;5000861;23;20424;-75
2022/03/28 05:29:26;;;;;;;39.88;14.48;;;5.00;99.90;;;;;;4976531;28;20092;-74
2022/03/28 05:31:57;;;;;;;34.00;12.27;;;5.00;99.90;;;;;;4974601;28;20038;-76
2022/03/28 05:34:30;;;;;;;38.33;12.93;;;5.00;99.90;;;;;;4977571;28;20061;-77
2022/03/28 05:37:03;;;;;;;39.95;13.57;;;5.10;99.90;;;;;;4974750;28;20038;-76
2022/03/28 05:39:36;;;;;;;46.55;14.38;;;5.10;99.90;;;;;;4959928;28;20202;-76
2022/03/28 05:42:24;;;;;;;48.92;13.93;;;5.10;99.90;;;;;;4946163;28;20608;-76
2022/03/28 05:45:34;;;;;;;52.92;17.05;;;5.10;99.90;;;;;;4910741;29;20044;-76
2022/03/28 05:49:01;;;;;;;;;;;;;;;;;;;;;
2022/03/28 05:52:44;;;;;;;60.15;16.27;;;5.20;99.90;;;;;;4931964;29;20051;-76
2022/03/28 05:55:40;;;;;;;38.58;14.30;;;5.20;99.90;;;;;;4931448;29;20110;-76
2022/03/28 05:58:56;;;;;;;38.80;13.85;;;5.20;99.90;;;;;;4897527;29;20048;-76
2022/03/28 06:02:34;;;;;;;35.85;13.98;;;5.20;99.90;;;;;;4861694;29;20067;-76
2022/03/28 06:05:39;;;;;;;;;;;;;;;;;;;;;
2022/03/28 06:08:25;;;;;;;28.38;11.57;;;5.30;99.90;;;;;;4924063;28;20130;-76
2022/03/28 06:11:17;;;;;;;30.13;12.63;;;5.30;99.90;;;;;;4953380;28;20513;-76
2022/03/28 06:14:10;;;;;;;;;;;;;;;;;;;;;
2022/03/28 06:17:28;;;;;;;29.75;13.43;;;5.30;99.90;;;;;;4973995;28;20058;-76
2022/03/28 06:20:33;;;;;;;;;;;;;;;;;;;;;
2022/03/28 06:23:17;;;;;;;33.72;14.82;;;5.30;99.90;;;;;;4977103;28;20121;-76
2022/03/28 06:25:48;;;;;;;35.85;14.68;;;5.30;99.90;;;;;;4957855;28;20050;-76
2022/03/28 06:28:17;;;;;;;35.53;14.65;;;5.30;99.90;;;;;;4984412;28;20034;-78
2022/03/28 06:30:43;;;;;;;36.63;15.73;;;5.40;99.90;;;;;;4971819;28;20050;-78
2022/03/28 06:33:19;;;;;;;50.42;18.00;;;5.40;99.90;;;;;;4972374;28;20073;-80
2022/03/28 06:35:48;;;;;;;41.08;14.73;;;5.40;99.90;;;;;;4989938;28;20077;-80
2022/03/28 06:38:19;;;;;;;37.42;14.15;;;5.40;99.90;;;;;;4973517;28;20153;-80
2022/03/28 06:40:51;;;;;;;32.20;14.60;;;5.50;99.90;;;;;;4967720;28;20038;-80
2022/03/28 06:43:23;;;;;;;34.07;15.53;;;5.50;99.90;;;;;;4958732;28;20524;-81
2022/03/28 06:45:51;;;;;;;29.50;14.25;;;5.40;99.90;;;;;;4962044;28;20513;-80
2022/03/28 06:48:20;;;;;;;34.28;14.52;;;5.40;99.90;;;;;;4979251;28;20047;-81
2022/03/28 06:50:53;;;;;;;33.83;14.43;;;5.50;99.90;;;;;;4979529;28;20045;-78
2022/03/28 06:53:30;;;;;;;30.58;14.05;;;5.50;99.90;;;;;;4961921;28;20527;-79
2022/03/28 06:56:05;;;;;;;28.75;13.00;;;5.60;99.90;;;;;;4977265;28;20477;-79
2022/03/28 06:58:34;;;;;;;28.67;14.07;;;5.60;99.90;;;;;;4961422;28;20577;-79
2022/03/28 07:01:03;;;;;;;25.92;12.48;;;5.50;99.90;;;;;;4963667;28;20069;-79
2022/03/28 07:03:33;;;;;;;30.10;13.32;;;5.60;99.90;;;;;;4979870;28;20589;-79
2022/03/28 07:06:02;;;;;;;23.75;12.23;;;5.50;99.90;;;;;;4964904;28;20440;-79
2022/03/28 07:08:36;;;;;;;26.92;14.38;;;5.50;99.90;;;;;;4980866;28;20073;-78
2022/03/28 07:11:10;;;;;;;29.67;14.77;;;5.50;99.90;;;;;;4981253;28;20034;-78
2022/03/28 07:13:36;;;;;;;30.55;14.55;;;5.40;99.90;;;;;;4981070;28;20046;-78
2022/03/28 07:16:02;;;;;;;30.15;14.80;;;5.60;99.90;;;;;;4979778;28;20042;-80
2022/03/28 07:18:37;;;;;;;23.83;13.85;;;5.50;99.90;;;;;;4980731;28;20038;-81
2022/03/28 07:21:07;;;;;;;25.40;13.98;;;5.50;99.90;;;;;;4979639;28;20094;-78
2022/03/28 07:23:39;;;;;;;33.38;16.25;;;5.50;99.90;;;;;;4979672;28;20125;-81
2022/03/28 07:26:11;;;;;;;27.77;13.60;;;5.60;99.90;;;;;;4964396;28;20112;-81
2022/03/28 07:28:44;;;;;;;24.63;14.07;;;5.60;99.90;;;;;;4965895;28;20197;-81
2022/03/28 07:31:25;;;;;;;29.02;14.77;;;5.50;99.90;;;;;;4998579;28;20061;-80
2022/03/28 07:34:29;;;;;;;33.33;16.75;;;5.50;99.90;;;;;;4965649;28;20073;-81
2022/03/28 07:36:58;;;;;;;38.95;17.05;;;5.50;99.90;;;;;;4979097;28;20038;-81
2022/03/28 07:39:24;;;;;;;40.53;18.20;;;5.50;99.90;;;;;;4962110;28;20057;-81
2022/03/28 07:41:51;;;;;;;33.78;18.25;;;5.60;99.90;;;;;;4979345;28;20142;-81
2022/03/28 07:44:31;;;;;;;48.78;18.80;;;5.60;99.90;;;;;;4979269;28;20042;-80
2022/03/28 07:46:59;;;;;;;35.15;16.77;;;5.70;99.90;;;;;;4963915;28;20042;-81
2022/03/28 07:49:25;;;;;;;33.50;18.52;;;5.70;99.90;;;;;;4979982;28;20141;-80
2022/03/28 07:51:51;;;;;;;38.78;19.27;;;5.80;99.90;;;;;;4964048;28;20046;-81
2022/03/28 07:54:17;;;;;;;38.17;19.95;;;5.80;99.90;;;;;;4964712;28;20046;-81
2022/03/28 07:56:59;;;;;;;36.60;18.50;;;5.90;99.90;;;;;;4964045;28;20113;-81
2022/03/28 07:59:31;;;;;;;38.63;19.52;;;5.80;99.90;;;;;;4964432;28;20047;-81
2022/03/28 08:02:07;;;;;;;36.42;19.05;;;5.90;99.90;;;;;;4963580;28;20045;-81
2022/03/28 08:04:36;;;;;;;35.42;17.80;;;5.80;99.90;;;;;;4964994;28;20050;-81
2022/03/28 08:07:13;;;;;;;32.33;17.63;;;5.80;99.90;;;;;;4980094;28;20563;-81
2022/03/28 08:09:43;;;;;;;32.47;18.20;;;5.90;99.90;;;;;;4983155;28;20050;-78
2022/03/28 08:12:10;;;;;;;30.60;17.40;;;6.00;99.90;;;;;;4970843;28;20481;-78
2022/03/28 08:14:45;;;;;;;31.27;16.58;;;6.00;99.90;;;;;;4971178;28;20069;-78
2022/03/28 08:17:13;;;;;;;33.67;18.48;;;6.10;99.90;;;;;;4964032;28;20046;-80
2022/03/28 08:19:39;;;;;;;32.53;18.40;;;6.20;99.90;;;;;;4962928;28;20042;-81
2022/03/28 08:22:14;;;;;;;31.10;17.42;;;6.20;99.90;;;;;;4962570;28;20133;-81
2022/03/28 08:24:43;;;;;;;29.40;16.88;;;6.30;99.90;;;;;;4994497;28;20054;-81
2022/03/28 08:27:23;;;;;;;29.88;16.38;;;6.20;99.90;;;;;;4962629;28;20061;-81
2022/03/28 08:29:57;;;;;;;29.10;16.65;;;6.10;99.90;;;;;;4962554;28;20436;-81
2022/03/28 08:32:25;;;;;;;31.15;16.63;;;6.30;99.90;;;;;;4961689;28;20042;-81
2022/03/28 08:34:59;;;;;;;30.80;17.73;;;6.30;99.90;;;;;;4970847;28;20046;-81
2022/03/28 08:37:28;;;;;;;29.55;16.13;;;6.30;99.90;;;;;;4973025;28;20397;-79
2022/03/28 08:39:59;;;;;;;27.40;15.98;;;6.30;99.90;;;;;;4965447;28;20045;-78
2022/03/28 08:42:26;;;;;;;26.67;16.60;;;6.30;99.90;;;;;;4965952;28;20046;-78
2022/03/28 08:44:52;;;;;;;27.20;16.77;;;6.40;99.90;;;;;;4965374;28;20046;-78
2022/03/28 08:47:20;;;;;;;27.77;15.82;;;6.50;99.90;;;;;;4981338;28;20061;-79
2022/03/28 08:49:55;;;;;;;28.88;15.13;;;6.50;99.90;;;;;;4980891;28;20519;-79
2022/03/28 08:52:24;;;;;;;24.75;14.13;;;6.70;99.90;;;;;;4963156;28;20042;-79
2022/03/28 08:54:56;;;;;;;24.15;15.07;;;6.70;99.90;;;;;;4995757;28;20038;-78
2022/03/28 08:57:26;;;;;;;25.55;14.68;;;6.70;99.90;;;;;;4979505;28;20038;-79
2022/03/28 09:00:02;;;;;;;21.52;13.80;;;6.70;99.90;;;;;;4979846;28;20038;-79
2022/03/28 09:02:38;;;;;;;20.98;13.43;;;6.80;99.90;;;;;;4979439;28;20073;-79
2022/03/28 09:05:05;;;;;;;21.88;11.98;;;6.80;99.90;;;;;;4979738;28;20070;-79
2022/03/28 09:07:31;;;;;;;22.05;12.68;;;6.80;99.90;;;;;;4980943;28;20568;-78
2022/03/28 09:10:03;;;;;;;18.77;12.18;;;6.70;99.90;;;;;;4964987;28;20113;-79
2022/03/28 09:12:31;;;;;;;22.55;12.00;;;7.10;99.90;;;;;;4964681;28;20046;-79
2022/03/28 09:15:04;;;;;;;18.45;11.75;;;7.10;99.90;;;;;;4980761;28;20068;-79
2022/03/28 09:17:32;;;;;;;20.27;12.70;;;7.20;99.90;;;;;;4981284;28;20054;-79
2022/03/28 09:20:03;;;;;;;18.00;11.70;;;7.30;99.90;;;;;;4980504;28;20497;-80
2022/03/28 09:22:38;;;;;;;17.60;10.55;;;7.20;99.90;;;;;;4978665;28;20041;-78
2022/03/28 09:25:10;;;;;;;16.00;10.05;;;7.30;99.90;;;;;;4978223;28;20060;-79
2022/03/28 09:27:40;;;;;;;15.48;9.57;;;7.40;99.90;;;;;;4979109;28;20035;-79
2022/03/28 09:30:14;;;;;;;16.55;9.98;;;7.70;99.90;;;;;;4963447;28;20042;-80
2022/03/28 09:32:49;;;;;;;16.35;10.43;;;7.80;99.90;;;;;;4962936;28;20042;-79
2022/03/28 09:35:20;;;;;;;13.63;9.15;;;8.00;99.90;;;;;;4978861;28;20047;-79
2022/03/28 09:38:09;;;;;;;15.45;10.43;;;8.20;99.90;;;;;;4963161;28;20035;-79
2022/03/28 09:40:45;;;;;;;15.52;10.90;;;8.20;99.90;;;;;;4979053;28;20034;-79
2022/03/28 09:43:23;;;;;;;16.10;10.05;;;8.10;99.90;;;;;;4979190;28;20042;-79
2022/03/28 09:45:58;;;;;;;14.48;9.68;;;8.10;99.90;;;;;;4979245;28;20042;-79
2022/03/28 09:48:32;;;;;;;12.73;8.52;;;8.20;99.90;;;;;;4962790;28;20056;-79
2022/03/28 09:51:04;;;;;;;12.90;8.95;;;8.40;99.90;;;;;;4962822;28;20074;-79
2022/03/28 09:53:36;;;;;;;14.60;8.55;;;8.50;99.90;;;;;;4962562;28;20562;-79
2022/03/28 09:56:11;;;;;;;11.98;8.10;;;8.60;99.90;;;;;;4963208;28;20039;-80
2022/03/28 09:58:47;;;;;;;13.57;8.35;;;8.60;99.90;;;;;;4963845;28;20068;-79
2022/03/28 10:01:33;;;;;;;13.85;8.65;;;8.70;99.90;;;;;;4962872;28;20125;-80
2022/03/28 10:04:03;;;;;;;13.48;8.70;;;8.80;99.90;;;;;;4962434;28;20579;-79
2022/03/28 10:06:37;;;;;;;13.85;8.73;;;9.30;99.90;;;;;;4963436;28;20065;-79
2022/03/28 10:09:07;;;;;;;14.23;8.52;;;9.40;99.90;;;;;;4963629;28;20042;-79
2022/03/28 10:11:38;;;;;;;13.63;8.40;;;9.60;99.90;;;;;;4963075;28;20054;-79
2022/03/28 10:14:06;;;;;;;18.65;9.25;;;9.70;99.90;;;;;;4963016;28;20050;-80
2022/03/28 10:16:33;;;;;;;15.25;9.23;;;9.70;99.90;;;;;;4962746;28;20043;-79
2022/03/28 10:19:05;;;;;;;13.23;9.40;;;9.70;99.90;;;;;;4963945;28;20057;-79
2022/03/28 10:21:36;;;;;;;15.17;9.57;;;9.60;99.90;;;;;;4980010;28;20473;-79
2022/03/28 10:24:22;;;;;;;12.52;8.75;;;9.50;99.90;;;;;;4964154;28;20065;-79
2022/03/28 10:26:57;;;;;;;13.15;8.90;;;9.40;99.90;;;;;;4963681;28;20456;-79
2022/03/28 10:29:35;;;;;;;14.57;10.18;;;9.40;99.90;;;;;;4964172;28;20046;-79
2022/03/28 10:32:17;;;;;;;14.80;8.88;;;9.20;99.90;;;;;;4980817;28;20165;-78
2022/03/28 10:35:04;;;;;;;13.15;9.13;;;8.90;99.90;;;;;;4976442;28;20472;-79
2022/03/28 10:37:37;;;;;;;14.10;9.63;;;9.20;99.90;;;;;;4978048;28;20100;-78
2022/03/28 10:40:26;;;;;;;13.82;9.63;;;9.40;99.90;;;;;;4966783;28;20475;-79
2022/03/28 10:43:03;;;;;;;12.82;7.85;;;9.70;99.90;;;;;;4980100;28;20142;-79
2022/03/28 10:46:02;;;;;;;12.52;8.05;;;9.90;99.90;;;;;;4964585;28;20046;-80
2022/03/28 10:48:53;;;;;;;11.75;8.02;;;10.00;99.90;;;;;;4938998;28;20061;-79
2022/03/28 10:51:30;;;;;;;12.77;8.90;;;9.90;99.90;;;;;;4964088;28;20050;-79
2022/03/28 10:53:59;;;;;;;12.48;9.05;;;9.70;99.90;;;;;;4980159;28;20487;-79
2022/03/28 10:56:35;;;;;;;12.77;9.02;;;9.60;99.90;;;;;;4964095;28;20053;-79
2022/03/28 10:59:06;;;;;;;12.40;8.43;;;9.80;99.90;;;;;;4964170;28;20496;-79
2022/03/28 11:01:38;;;;;;;13.30;9.70;;;9.80;99.90;;;;;;4963614;28;20142;-79
2022/03/28 11:04:12;;;;;;;13.60;9.48;;;9.80;99.90;;;;;;4963601;28;20050;-79
2022/03/28 11:07:04;;;;;;;14.23;9.80;;;9.60;99.90;;;;;;4964337;28;20101;-79
2022/03/28 11:10:02;;;;;;;15.95;9.82;;;9.50;99.90;;;;;;4964189;28;20054;-79
2022/03/28 11:12:41;;;;;;;14.75;10.20;;;9.50;99.90;;;;;;4964610;28;20053;-79
2022/03/28 11:15:39;;;;;;;15.65;10.15;;;9.60;99.90;;;;;;4980700;28;20042;-79
2022/03/28 11:18:17;;;;;;;16.20;10.82;;;10.00;99.90;;;;;;4980826;28;20122;-79
2022/03/28 11:20:46;;;;;;;15.20;9.68;;;10.10;99.90;;;;;;4964521;28;20034;-79
2022/03/28 11:23:15;;;;;;;18.17;10.52;;;10.00;99.90;;;;;;4966979;28;20053;-78
2022/03/28 11:25:58;;;;;;;16.42;10.38;;;10.10;99.90;;;;;;4989081;28;20504;-79
2022/03/28 11:28:26;;;;;;;17.92;11.43;;;10.00;99.90;;;;;;4995543;23;20050;-76
2022/03/28 11:30:59;;;;;;;20.23;12.45;;;10.10;99.90;;;;;;4996891;28;20399;-76
2022/03/28 11:33:48;;;;;;;21.05;11.65;;;10.40;99.90;;;;;;4980579;28;20409;-76
2022/03/28 11:36:15;;;;;;;18.17;11.77;;;10.80;99.90;;;;;;4980490;28;20483;-76
2022/03/28 11:38:44;;;;;;;17.60;11.48;;;11.10;99.90;;;;;;4996708;28;20042;-76
2022/03/28 11:41:14;;;;;;;19.30;12.13;;;11.30;99.90;;;;;;4980472;28;20049;-76
2022/03/28 11:43:45;;;;;;;16.50;11.25;;;11.50;99.90;;;;;;5013311;28;20456;-76
2022/03/28 11:46:23;;;;;;;18.55;12.48;;;12.20;99.90;;;;;;4995722;28;20045;-76
2022/03/28 11:49:04;;;;;;;17.48;11.98;;;12.50;99.90;;;;;;4996463;28;20042;-76
2022/03/28 11:51:33;;;;;;;17.90;11.98;;;12.40;99.90;;;;;;4996204;28;20088;-77
2022/03/28 11:54:00;;;;;;;16.23;12.43;;;12.40;99.90;;;;;;4979835;28;20038;-77
2022/03/28 11:58:14;;;;;;;15.77;11.50;;;12.50;99.90;;;;;;4996126;28;20048;-77
2022/03/28 11:59:20;;;;;;;16.88;11.10;;;12.50;99.90;;;;;;4996294;28;20400;-77
2022/03/28 12:01:48;;;;;;;21.73;11.82;;;12.30;99.90;;;;;;4996448;28;20034;-77
2022/03/28 12:04:17;;;;;;;16.05;11.30;;;12.60;99.90;;;;;;4995850;28;20084;-77
2022/03/28 12:06:43;;;;;;;15.73;11.20;;;13.50;99.90;;;;;;4995863;28;20073;-77
2022/03/28 12:09:15;;;;;;;16.70;11.82;;;14.60;99.90;;;;;;4979764;28;20563;-77
2022/03/28 12:11:47;;;;;;;16.45;11.88;;;15.40;99.90;;;;;;5012276;28;20033;-77
2022/03/28 12:14:13;;;;;;;15.48;12.00;;;16.30;99.90;;;;;;4995785;28;20100;-77
2022/03/28 12:16:50;;;;;;;15.80;10.90;;;17.10;99.90;;;;;;4979665;28;20427;-77
2022/03/28 12:19:30;;;;;;;15.20;11.23;;;17.70;98.60;;;;;;4996087;28;20066;-77
2022/03/28 12:21:58;;;;;;;16.55;10.55;;;18.30;99.30;;;;;;4995884;28;20088;-77
2022/03/28 12:24:25;;;;;;;14.88;11.38;;;18.50;97.40;;;;;;4995597;28;20046;-77
2022/03/28 12:26:53;;;;;;;14.93;11.73;;;18.60;97.20;;;;;;4995581;28;20046;-77
2022/03/28 12:29:19;;;;;;;13.85;10.90;;;18.90;92.30;;;;;;4995775;28;20084;-77
2022/03/28 12:31:48;;;;;;;20.05;11.77;;;19.20;93.10;;;;;;4995958;28;20504;-77
2022/03/28 12:34:15;;;;;;;14.18;11.13;;;19.40;92.10;;;;;;4995275;28;20424;-77
2022/03/28 12:36:41;;;;;;;15.10;11.63;;;19.40;92.90;;;;;;4995411;28;20546;-77
2022/03/28 12:39:10;;;;;;;15.10;11.68;;;19.50;91.90;;;;;;4995458;28;20038;-77
2022/03/28 12:41:41;;;;;;;14.02;11.45;;;19.70;91.50;;;;;;4995475;28;20073;-77
2022/03/28 12:44:16;;;;;;;14.75;11.18;;;20.00;84.10;;;;;;4995556;28;20396;-77
2022/03/28 12:46:44;;;;;;;14.30;10.65;;;20.20;84.50;;;;;;4995201;28;20042;-77
2022/03/28 12:49:13;;;;;;;12.88;10.10;;;20.10;85.30;;;;;;4995141;28;20045;-77
2022/03/28 12:51:40;;;;;;;11.98;10.48;;;20.30;87.60;;;;;;4995202;28;20121;-77
2022/03/28 12:54:15;;;;;;;15.48;12.10;;;20.60;84.90;;;;;;4995111;28;20045;-77
2022/03/28 12:56:54;;;;;;;15.10;13.25;;;20.90;66.40;;;;;;4994973;28;20038;-78
2022/03/28 12:59:20;;;;;;;15.30;12.45;;;20.40;62.80;;;;;;4994851;28;20116;-78
2022/03/28 13:01:47;;;;;;;28.00;15.93;;;19.80;71.80;;;;;;4995011;28;20044;-78
2022/03/28 13:04:24;;;;;;;18.55;10.98;;;19.40;79.50;;;;;;4994837;28;20042;-78
2022/03/28 13:06:58;;;;;;;10.70;9.60;;;19.70;75.40;;;;;;4995115;28;20054;-78